createdAt,value
2022-12-03T00:00:57.969Z,32.35
2022-12-03T00:03:26.613Z,32.65
2022-12-03T00:05:54.959Z,41.10
2022-12-03T00:08:23.444Z,38.63
2022-12-03T00:10:52.029Z,42.70
2022-12-03T00:13:20.463Z,41.03
2022-12-03T00:15:49.019Z,39.47
2022-12-03T00:18:17.590Z,31.13
2022-12-03T00:20:46.156Z,31.83
2022-12-03T00:23:14.464Z,34.90
2022-12-03T00:25:43.060Z,38.15
2022-12-03T00:28:11.546Z,36.80
2022-12-03T00:30:39.879Z,38.00
2022-12-03T00:33:08.377Z,40.20
2022-12-03T00:35:36.610Z,26.77
2022-12-03T00:38:04.914Z,30.45
2022-12-03T00:40:33.287Z,34.28
2022-12-03T00:43:01.639Z,34.47
2022-12-03T00:45:29.814Z,37.03
2022-12-03T00:47:58.545Z,25.45
2022-12-03T00:50:26.866Z,25.30
2022-12-03T00:52:55.032Z,25.70
2022-12-03T00:55:23.315Z,21.67
2022-12-03T00:57:51.551Z,24.45
2022-12-03T01:00:20.105Z,32.63
2022-12-03T01:02:48.364Z,25.23
2022-12-03T01:05:16.686Z,25.65
2022-12-03T01:07:45.437Z,23.20
2022-12-03T01:10:14.811Z,20.25
2022-12-03T01:12:43.491Z,19.23
2022-12-03T01:15:12.116Z,23.77
2022-12-03T01:17:40.692Z,19.83
2022-12-03T01:20:10.175Z,17.35
2022-12-03T01:22:38.751Z,20.35
2022-12-03T01:25:07.783Z,19.65
2022-12-03T01:27:36.134Z,28.35
2022-12-03T01:30:05.894Z,20.52
2022-12-03T01:32:34.620Z,22.70
2022-12-03T01:35:02.926Z,22.45
2022-12-03T01:37:31.173Z,17.48
2022-12-03T01:39:59.461Z,17.98
2022-12-03T01:42:37.479Z,24.35
2022-12-03T01:45:06.532Z,28.85
2022-12-03T01:47:37.497Z,17.58
2022-12-03T01:50:30.845Z,24.45
2022-12-03T01:53:02.284Z,20.10
2022-12-03T01:55:31.213Z,15.80
2022-12-03T01:58:01.478Z,15.25
2022-12-03T02:00:30.327Z,15.75
2022-12-03T02:03:06.225Z,17.73
2022-12-03T02:05:35.122Z,18.98
2022-12-03T02:08:23.158Z,26.95
2022-12-03T02:10:52.098Z,23.92
2022-12-03T02:13:20.715Z,24.58
2022-12-03T02:15:49.357Z,20.20
2022-12-03T02:18:18.880Z,26.50
2022-12-03T02:21:08.736Z,19.48
2022-12-03T02:23:43.939Z,13.45
2022-12-03T02:26:12.342Z,18.23
2022-12-03T02:28:40.486Z,17.52
2022-12-03T02:31:08.904Z,13.80
2022-12-03T02:33:37.354Z,17.95
2022-12-03T02:36:05.955Z,18.15
2022-12-03T02:38:36.309Z,14.88
2022-12-03T02:41:11.707Z,13.57
2022-12-03T02:43:40.107Z,12.10
2022-12-03T02:46:09.193Z,17.92
2022-12-03T02:48:40.577Z,11.73
2022-12-03T02:51:11.321Z,14.95
2022-12-03T02:53:43.196Z,12.57
2022-12-03T02:56:15.599Z,20.60
2022-12-03T02:58:46.806Z,19.90
2022-12-03T03:01:15.714Z,15.93
2022-12-03T03:03:46.243Z,18.98
2022-12-03T03:06:16.528Z,17.45
2022-12-03T03:08:45.118Z,16.65
2022-12-03T03:11:13.456Z,17.77
2022-12-03T03:13:41.972Z,16.80
2022-12-03T03:16:10.616Z,20.85
2022-12-03T03:18:39.515Z,30.35
2022-12-03T03:21:07.975Z,15.98
2022-12-03T03:23:36.248Z,13.77
2022-12-03T03:26:07.866Z,18.02
2022-12-03T03:28:39.867Z,15.00
2022-12-03T03:31:10.759Z,16.42
2022-12-03T03:33:41.113Z,21.17
2022-12-03T03:36:09.885Z,17.27
2022-12-03T03:38:39.618Z,14.30
2022-12-03T03:41:09.789Z,21.13
2022-12-03T03:43:39.483Z,15.32
2022-12-03T03:46:08.409Z,20.10
2022-12-03T03:48:36.681Z,23.30
2022-12-03T03:51:06.196Z,20.45
2022-12-03T03:53:34.449Z,17.75
2022-12-03T03:56:02.794Z,18.77
2022-12-03T03:58:31.076Z,19.65
2022-12-03T04:00:59.458Z,18.20
2022-12-03T04:03:29.303Z,22.52
2022-12-03T04:05:57.720Z,12.93
2022-12-03T04:08:25.832Z,20.90
2022-12-03T04:10:54.030Z,23.48
2022-12-03T04:13:22.384Z,19.00
2022-12-03T04:15:50.612Z,19.30
2022-12-03T04:18:18.853Z,22.02
2022-12-03T04:20:46.926Z,17.10
2022-12-03T04:23:15.104Z,25.38
2022-12-03T04:25:43.378Z,17.33
2022-12-03T04:28:11.479Z,24.08
2022-12-03T04:30:40.089Z,26.52
2022-12-03T04:33:08.221Z,21.88
2022-12-03T04:35:36.762Z,22.35
2022-12-03T04:38:05.073Z,20.27
2022-12-03T04:40:33.128Z,24.58
2022-12-03T04:43:01.359Z,20.67
2022-12-03T04:45:29.456Z,25.17
2022-12-03T04:47:57.782Z,27.75
2022-12-03T04:50:26.060Z,23.77
2022-12-03T04:52:54.082Z,24.52
2022-12-03T04:55:22.400Z,21.60
2022-12-03T04:57:50.572Z,28.15
2022-12-03T05:00:19.110Z,29.10
2022-12-03T05:02:47.320Z,26.27
2022-12-03T05:05:15.784Z,28.63
2022-12-03T05:07:44.004Z,27.10
2022-12-03T05:10:12.959Z,22.77
2022-12-03T05:12:41.093Z,23.58
2022-12-03T05:15:09.748Z,19.67
2022-12-03T05:17:38.024Z,25.98
2022-12-03T05:20:06.711Z,23.38
2022-12-03T05:22:35.017Z,21.98
2022-12-03T05:25:03.721Z,27.17
2022-12-03T05:27:31.821Z,19.13
2022-12-03T05:30:00.073Z,28.13
2022-12-03T05:32:28.368Z,19.00
2022-12-03T05:34:56.851Z,21.85
2022-12-03T05:37:25.634Z,29.33
2022-12-03T05:39:53.718Z,25.58
2022-12-03T05:42:21.880Z,21.00
2022-12-03T05:44:50.201Z,21.45
2022-12-03T05:47:18.424Z,30.88
2022-12-03T05:49:46.514Z,21.98
2022-12-03T05:52:14.785Z,19.75
2022-12-03T05:54:42.955Z,28.58
2022-12-03T05:57:11.108Z,19.27
2022-12-03T05:59:39.326Z,22.80
2022-12-03T06:02:07.542Z,20.35
2022-12-03T06:04:35.832Z,25.85
2022-12-03T06:07:03.925Z,22.17
2022-12-03T06:09:32.019Z,19.30
2022-12-03T06:12:00.236Z,20.63
2022-12-03T06:14:28.322Z,22.80
2022-12-03T06:16:56.705Z,24.30
2022-12-03T06:19:24.858Z,26.52
2022-12-03T06:21:52.959Z,26.27
2022-12-03T06:24:21.227Z,23.48
2022-12-03T06:26:49.524Z,21.00
2022-12-03T06:29:17.722Z,20.38
2022-12-03T06:31:45.869Z,24.65
2022-12-03T06:34:14.156Z,26.92
2022-12-03T06:36:42.498Z,24.00
2022-12-03T06:39:10.594Z,24.40
2022-12-03T06:41:39.048Z,23.08
2022-12-03T06:44:07.265Z,18.10
2022-12-03T06:46:35.558Z,21.77
2022-12-03T06:49:04.013Z,25.70
2022-12-03T06:51:32.566Z,21.25
2022-12-03T06:54:00.908Z,19.00
2022-12-03T06:56:35.019Z,23.02
2022-12-03T06:59:05.275Z,26.33
2022-12-03T07:01:33.768Z,23.58
2022-12-03T07:04:01.963Z,30.58
2022-12-03T07:06:30.247Z,26.83
2022-12-03T07:08:58.463Z,28.25
2022-12-03T07:11:26.648Z,23.13
2022-12-03T07:13:56.254Z,26.00
2022-12-03T07:18:56.278Z,22.13
2022-12-03T07:21:24.645Z,28.02
2022-12-03T07:23:53.669Z,23.05
2022-12-03T07:26:21.843Z,26.45
2022-12-03T07:28:50.070Z,28.45
2022-12-03T07:31:18.566Z,24.85
2022-12-03T07:33:47.817Z,23.40
2022-12-03T07:36:16.169Z,26.38
2022-12-03T07:38:44.525Z,22.65
2022-12-03T07:41:12.930Z,18.58
2022-12-03T07:43:41.308Z,19.23
2022-12-03T07:46:09.727Z,16.45
2022-12-03T07:48:37.859Z,21.00
2022-12-03T07:51:06.206Z,20.85
2022-12-03T07:53:34.544Z,20.13
2022-12-03T07:56:06.388Z,24.98
2022-12-03T07:58:34.878Z,19.08
2022-12-03T08:01:03.468Z,20.67
2022-12-03T08:03:32.373Z,21.67
2022-12-03T08:06:00.745Z,24.33
2022-12-03T08:08:29.194Z,24.08
2022-12-03T08:10:58.243Z,30.63
2022-12-03T08:13:28.372Z,26.20
2022-12-03T08:16:00.568Z,27.77
2022-12-03T08:20:57.248Z,21.27
2022-12-03T08:23:26.462Z,22.95
2022-12-03T08:25:54.694Z,26.70
2022-12-03T08:28:25.412Z,20.00
2022-12-03T08:31:32.845Z,23.38
2022-12-03T08:34:23.402Z,24.63
2022-12-03T08:39:55.416Z,22.65
2022-12-03T08:42:32.199Z,25.00
2022-12-03T08:45:29.691Z,25.88
2022-12-03T08:48:21.968Z,24.10
2022-12-03T08:50:50.879Z,23.08
2022-12-03T08:53:32.981Z,20.42
2022-12-03T08:56:14.093Z,20.83
2022-12-03T08:58:48.497Z,28.20
2022-12-03T09:01:31.644Z,22.98
2022-12-03T09:04:26.678Z,14.98
2022-12-03T09:06:55.829Z,20.85
2022-12-03T09:09:25.295Z,27.23
2022-12-03T09:11:55.702Z,19.60
2022-12-03T09:14:24.730Z,17.42
2022-12-03T09:16:54.251Z,17.52
2022-12-03T09:19:27.646Z,17.25
2022-12-03T09:21:59.739Z,16.23
2022-12-03T09:24:29.860Z,19.52
2022-12-03T09:27:02.492Z,19.77
2022-12-03T09:29:31.423Z,18.10
2022-12-03T09:32:00.317Z,20.02
2022-12-03T09:34:29.137Z,21.40
2022-12-03T09:36:57.588Z,20.77
2022-12-03T09:39:26.059Z,15.77
2022-12-03T09:41:56.099Z,11.82
2022-12-03T09:44:24.998Z,12.55
2022-12-03T09:46:53.700Z,11.82
2022-12-03T09:49:22.253Z,12.48
2022-12-03T09:51:50.994Z,12.32
2022-12-03T09:54:28.105Z,12.55
2022-12-03T09:56:59.942Z,10.38
2022-12-03T10:01:59.855Z,9.05
2022-12-03T10:04:31.499Z,8.63
2022-12-03T10:07:00.417Z,9.68
2022-12-03T10:09:30.940Z,12.77
2022-12-03T10:12:00.556Z,11.05
2022-12-03T10:14:29.585Z,8.20
2022-12-03T10:16:58.928Z,9.90
2022-12-03T10:19:30.940Z,7.95
2022-12-03T10:24:33.278Z,10.50
2022-12-03T10:27:31.134Z,7.53
2022-12-03T10:30:02.088Z,6.25
2022-12-03T10:32:46.021Z,8.07
2022-12-03T10:35:23.967Z,7.72
2022-12-03T10:38:04.570Z,7.05
2022-12-03T10:40:40.573Z,10.30
2022-12-03T10:43:20.764Z,5.90
2022-12-03T10:46:04.392Z,5.47
2022-12-03T10:48:33.472Z,4.88
2022-12-03T10:51:08.024Z,5.97
2022-12-03T10:53:38.771Z,7.32
2022-12-03T10:56:13.006Z,11.98
2022-12-03T10:58:43.170Z,12.25
2022-12-03T11:01:21.049Z,14.07
2022-12-03T11:03:50.291Z,7.03
2022-12-03T11:06:21.918Z,7.65
2022-12-03T11:08:59.469Z,8.15
2022-12-03T11:11:31.773Z,11.02
2022-12-03T11:14:03.955Z,9.85
2022-12-03T11:17:01.834Z,8.25
2022-12-03T11:19:45.346Z,14.63
2022-12-03T11:22:13.921Z,9.45
2022-12-03T11:24:42.410Z,6.63
2022-12-03T11:27:10.809Z,8.70
2022-12-03T11:29:51.504Z,12.40
2022-12-03T11:32:44.359Z,9.18
2022-12-03T11:35:25.407Z,7.78
2022-12-03T11:37:54.170Z,10.43
2022-12-03T11:40:22.850Z,8.93
2022-12-03T11:42:51.607Z,9.45
2022-12-03T11:45:30.029Z,6.53
2022-12-03T11:48:12.077Z,8.20
2022-12-03T11:50:51.413Z,10.23
2022-12-03T11:53:28.794Z,8.57
2022-12-03T11:56:07.288Z,5.85
2022-12-03T11:58:39.449Z,6.57
2022-12-03T12:01:09.390Z,5.55
2022-12-03T12:03:47.672Z,10.48
2022-12-03T12:06:22.352Z,4.05
2022-12-03T12:08:53.969Z,8.13
2022-12-03T12:11:32.340Z,6.05
2022-12-03T12:14:10.810Z,5.72
2022-12-03T12:16:42.218Z,7.40
2022-12-03T12:19:49.743Z,6.82
2022-12-03T12:22:31.728Z,6.55
2022-12-03T12:25:05.992Z,4.88
2022-12-03T12:27:42.083Z,12.27
2022-12-03T12:30:19.264Z,7.80
2022-12-03T12:33:01.465Z,5.45
2022-12-03T12:35:33.083Z,7.75
2022-12-03T12:38:15.782Z,7.15
2022-12-03T12:40:54.288Z,3.45
2022-12-03T12:43:28.688Z,4.82
2022-12-03T12:46:45.434Z,6.80
2022-12-03T12:49:00.827Z,7.32
2022-12-03T12:51:29.496Z,3.53
2022-12-03T12:53:58.602Z,5.88
2022-12-03T12:56:31.083Z,10.82
2022-12-03T12:59:11.820Z,13.90
2022-12-03T13:01:41.585Z,7.03
2022-12-03T13:04:19.458Z,5.75
2022-12-03T13:06:50.095Z,4.10
2022-12-03T13:09:21.855Z,4.65
2022-12-03T13:12:01.551Z,3.85
2022-12-03T13:14:39.571Z,2.42
2022-12-03T13:17:20.491Z,7.20
2022-12-03T13:19:55.872Z,5.15
2022-12-03T13:22:29.522Z,4.15
2022-12-03T13:24:58.256Z,8.02
2022-12-03T13:27:29.806Z,7.93
2022-12-03T13:30:07.751Z,5.63
2022-12-03T13:32:42.159Z,12.35
2022-12-03T13:35:35.852Z,9.85
2022-12-03T13:38:16.204Z,7.63
2022-12-03T13:40:45.177Z,10.68
2022-12-03T13:43:16.875Z,6.20
2022-12-03T13:45:47.623Z,5.25
2022-12-03T13:48:28.273Z,10.00
2022-12-03T13:50:57.379Z,5.07
2022-12-03T13:56:29.963Z,14.48
2022-12-03T13:59:00.538Z,8.07
2022-12-03T14:01:29.964Z,4.75
2022-12-03T14:04:02.333Z,3.83
2022-12-03T14:06:31.348Z,7.38
2022-12-03T14:09:00.166Z,4.07
2022-12-03T14:11:28.522Z,8.70
2022-12-03T14:13:56.996Z,9.50
2022-12-03T14:16:25.733Z,9.05
2022-12-03T14:18:54.275Z,10.82
2022-12-03T14:21:22.913Z,8.57
2022-12-03T14:23:55.852Z,9.85
2022-12-03T14:26:26.538Z,12.15
2022-12-03T14:28:55.597Z,7.03
2022-12-03T14:31:24.083Z,9.18
2022-12-03T14:33:53.152Z,6.38
2022-12-03T14:36:22.612Z,8.85
2022-12-03T14:38:51.705Z,7.53
2022-12-03T14:41:20.225Z,9.98
2022-12-03T14:43:49.148Z,4.38
2022-12-03T14:46:20.457Z,17.93
2022-12-03T14:48:49.013Z,12.30
2022-12-03T14:51:18.435Z,26.95
2022-12-03T14:53:50.326Z,17.65
2022-12-03T14:56:20.953Z,5.80
2022-12-03T14:58:53.748Z,3.47
2022-12-03T15:01:22.508Z,4.20
2022-12-03T15:03:51.413Z,5.90
2022-12-03T15:06:20.340Z,8.57
2022-12-03T15:08:50.162Z,2.78
2022-12-03T15:11:30.387Z,4.45
2022-12-03T15:13:59.453Z,5.43
2022-12-03T15:16:30.314Z,11.95
2022-12-03T15:19:00.560Z,5.28
2022-12-03T15:21:33.478Z,7.20
2022-12-03T15:24:06.477Z,7.15
2022-12-03T15:26:35.864Z,7.95
2022-12-03T15:29:07.725Z,9.45
2022-12-03T15:31:38.388Z,7.85
2022-12-03T15:36:52.434Z,8.02
2022-12-03T15:39:21.152Z,7.13
2022-12-03T15:41:51.069Z,7.65
2022-12-03T15:44:19.924Z,5.25
2022-12-03T15:46:48.145Z,8.50
2022-12-03T15:49:16.698Z,11.88
2022-12-03T15:51:45.709Z,16.45
2022-12-03T15:54:14.017Z,6.15
2022-12-03T15:56:42.983Z,20.70
2022-12-03T15:59:13.095Z,4.72
2022-12-03T16:01:41.778Z,9.43
2022-12-03T16:04:19.198Z,14.23
2022-12-03T16:06:51.239Z,9.25
2022-12-03T16:09:25.311Z,5.35
2022-12-03T16:11:58.509Z,4.47
2022-12-03T16:14:26.815Z,8.18
2022-12-03T16:16:55.533Z,7.57
2022-12-03T16:19:23.770Z,5.38
2022-12-03T16:21:52.442Z,7.75
2022-12-03T16:24:20.882Z,3.88
2022-12-03T16:26:49.283Z,5.25
2022-12-03T16:29:19.728Z,2.58
2022-12-03T16:31:48.267Z,7.40
2022-12-03T16:34:16.620Z,4.63
2022-12-03T16:36:44.982Z,8.27
2022-12-03T16:39:14.248Z,2.45
2022-12-03T16:41:42.976Z,3.83
2022-12-03T16:44:11.493Z,5.45
2022-12-03T16:46:43.114Z,6.20
2022-12-03T16:49:12.132Z,7.75
2022-12-03T16:51:40.363Z,15.50
2022-12-03T16:54:08.924Z,20.42
2022-12-03T16:56:37.532Z,19.50
2022-12-03T16:59:06.051Z,18.73
2022-12-03T17:01:34.609Z,17.25
2022-12-03T17:04:03.121Z,13.18
2022-12-03T17:06:31.907Z,8.30
2022-12-03T17:09:00.204Z,12.02
2022-12-03T17:11:28.825Z,5.93
2022-12-03T17:13:57.309Z,7.43
2022-12-03T17:16:44.357Z,15.88
2022-12-03T17:19:13.102Z,9.30
2022-12-03T17:21:42.020Z,12.60
2022-12-03T17:24:10.615Z,17.08
2022-12-03T17:26:46.296Z,16.25
2022-12-03T17:29:15.091Z,2.08
2022-12-03T17:31:43.566Z,4.63
2022-12-03T17:34:12.139Z,7.18
2022-12-03T17:36:40.548Z,12.00
2022-12-03T17:39:08.917Z,7.05
2022-12-03T17:41:37.220Z,9.55
2022-12-03T17:44:10.128Z,14.18
2022-12-03T17:46:40.180Z,11.10
2022-12-03T17:49:08.992Z,18.77
2022-12-03T17:51:37.574Z,12.73
2022-12-03T17:54:06.303Z,11.10
2022-12-03T17:56:34.915Z,7.95
2022-12-03T17:59:06.074Z,7.50
2022-12-03T18:01:34.783Z,33.42
2022-12-03T18:04:03.585Z,19.80
2022-12-03T18:06:32.687Z,13.95
2022-12-03T18:09:06.144Z,9.32
2022-12-03T18:11:35.716Z,13.32
2022-12-03T18:14:05.614Z,13.18
2022-12-03T18:16:34.210Z,11.30
2022-12-03T18:19:06.279Z,13.57
2022-12-03T18:21:35.656Z,14.80
2022-12-03T18:24:04.642Z,36.30
2022-12-03T18:26:33.330Z,25.77
2022-12-03T18:29:02.699Z,37.45
2022-12-03T18:31:33.476Z,31.88
2022-12-03T18:34:02.123Z,34.65
2022-12-03T18:36:35.078Z,24.00
2022-12-03T18:39:07.512Z,52.50
2022-12-03T18:41:36.827Z,43.92
2022-12-03T18:44:10.683Z,40.67
2022-12-03T18:46:53.669Z,45.40
2022-12-03T18:49:23.206Z,46.55
2022-12-03T18:51:57.486Z,36.80
2022-12-03T18:54:28.010Z,30.55
2022-12-03T18:56:56.893Z,45.03
2022-12-03T18:59:25.305Z,17.42
2022-12-03T19:01:53.786Z,35.55
2022-12-03T19:04:22.169Z,42.50
2022-12-03T19:06:50.550Z,27.80
2022-12-03T19:09:19.209Z,36.65
2022-12-03T19:11:47.782Z,45.13
2022-12-03T19:14:16.177Z,57.40
2022-12-03T19:16:44.770Z,52.10
2022-12-03T19:19:13.164Z,49.65
2022-12-03T19:21:41.454Z,27.15
2022-12-03T19:24:24.268Z,35.38
2022-12-03T19:26:53.450Z,31.77
2022-12-03T19:29:25.616Z,44.35
2022-12-03T19:31:54.100Z,59.15
2022-12-03T19:34:22.397Z,45.50
2022-12-03T19:36:50.895Z,55.65
2022-12-03T19:39:19.499Z,54.05
2022-12-03T19:41:47.920Z,58.65
2022-12-03T19:44:18.429Z,43.33
2022-12-03T19:46:46.885Z,36.97
2022-12-03T19:49:15.016Z,53.83
2022-12-03T19:51:43.335Z,40.20
2022-12-03T19:54:12.798Z,35.60
2022-12-03T19:56:41.301Z,37.47
2022-12-03T19:59:11.754Z,38.33
2022-12-03T20:01:41.041Z,39.60
2022-12-03T20:04:09.790Z,40.65
2022-12-03T20:06:38.183Z,27.35
2022-12-03T20:09:10.783Z,46.38
2022-12-03T20:11:40.189Z,42.80
2022-12-03T20:14:12.320Z,45.80
2022-12-03T20:16:40.955Z,55.13
2022-12-03T20:19:13.040Z,54.88
2022-12-03T20:24:14.318Z,38.35
2022-12-03T20:26:43.172Z,54.17
2022-12-03T20:29:11.604Z,48.90
2022-12-03T20:31:40.121Z,37.92
2022-12-03T20:34:08.634Z,33.28
2022-12-03T20:36:37.082Z,37.65
2022-12-03T20:39:07.373Z,41.75
2022-12-03T20:41:37.351Z,44.88
2022-12-03T20:44:06.973Z,46.33
2022-12-03T20:46:35.650Z,44.58
2022-12-03T20:49:04.262Z,57.72
2022-12-03T20:51:33.039Z,64.82
2022-12-03T20:54:02.017Z,47.40
2022-12-03T20:56:33.660Z,47.53
2022-12-03T20:59:06.642Z,56.03
2022-12-03T21:01:35.624Z,48.80
2022-12-03T21:04:04.220Z,52.42
2022-12-03T21:06:34.129Z,49.38
2022-12-03T21:09:04.401Z,59.13
2022-12-03T21:11:34.542Z,39.33
2022-12-03T21:14:03.902Z,45.90
2022-12-03T21:17:05.912Z,50.20
2022-12-03T21:19:23.482Z,31.15
2022-12-03T21:21:51.875Z,37.88
2022-12-03T21:24:20.486Z,40.67
2022-12-03T21:26:49.109Z,36.38
2022-12-03T21:29:18.163Z,37.92
2022-12-03T21:31:46.667Z,42.90
2022-12-03T21:34:15.181Z,38.92
2022-12-03T21:36:43.669Z,38.53
2022-12-03T21:39:11.895Z,34.13
2022-12-03T21:41:40.263Z,34.78
2022-12-03T21:44:28.710Z,33.05
2022-12-03T21:47:12.690Z,26.23
2022-12-03T21:49:43.107Z,24.83
2022-12-03T21:52:11.536Z,20.02
2022-12-03T21:54:39.941Z,22.52
2022-12-03T21:57:08.260Z,23.88
2022-12-03T21:59:36.774Z,25.48
2022-12-03T22:02:05.589Z,32.92
2022-12-03T22:04:33.934Z,35.05
2022-12-03T22:07:02.773Z,30.02
2022-12-03T22:09:33.821Z,39.95
2022-12-03T22:12:02.195Z,36.10
2022-12-03T22:14:31.122Z,45.00
2022-12-03T22:16:59.697Z,35.63
2022-12-03T22:19:28.206Z,38.30
2022-12-03T22:21:56.653Z,21.80
2022-12-03T22:24:25.007Z,18.95
2022-12-03T22:26:53.317Z,16.73
2022-12-03T22:29:22.121Z,13.90
2022-12-03T22:31:51.094Z,14.52
2022-12-03T22:34:19.357Z,18.02
2022-12-03T22:36:47.831Z,26.60
2022-12-03T22:39:19.940Z,31.67
2022-12-03T22:41:48.725Z,25.77
2022-12-03T22:44:17.520Z,28.80
2022-12-03T22:46:45.901Z,27.75
2022-12-03T22:49:14.800Z,29.75
2022-12-03T22:51:48.052Z,23.55
2022-12-03T22:54:22.414Z,25.65
2022-12-03T22:56:54.604Z,29.15
2022-12-03T22:59:24.709Z,16.55
2022-12-03T23:01:53.576Z,18.50
2022-12-03T23:04:28.722Z,15.27
2022-12-03T23:06:57.819Z,14.48
2022-12-03T23:09:26.985Z,14.43
2022-12-03T23:14:38.790Z,17.83
2022-12-03T23:17:07.379Z,15.65
2022-12-03T23:19:37.417Z,13.32
2022-12-03T23:22:06.023Z,12.48
2022-12-03T23:24:34.381Z,9.85
2022-12-03T23:27:02.470Z,11.60
2022-12-03T23:29:34.864Z,19.42
2022-12-03T23:32:03.436Z,18.75
2022-12-03T23:34:32.032Z,16.85
2022-12-03T23:37:00.336Z,16.75
2022-12-03T23:39:28.681Z,14.77
2022-12-03T23:41:57.055Z,15.20
2022-12-03T23:44:25.369Z,19.63
2022-12-03T23:46:53.808Z,19.10
2022-12-03T23:49:23.065Z,20.13
2022-12-03T23:51:51.491Z,13.32
2022-12-03T23:54:19.803Z,16.63
2022-12-03T23:56:48.261Z,13.48
2022-12-03T23:59:16.608Z,20.02
